Time,TemperatureF,DewpointF,PressureIn,WindDirection,WindDirectionDegrees,WindSpeedMPH,WindSpeedGustMPH,Humidity,HourlyPrecipIn,Conditions,Clouds,dailyrainin,SoftwareType,DateUTC
2013-05-03 00:01:00,61.7,51.0,29.18,ESE,109,0.0,0.0,68,0.00,,---,0.00,VWS V14.00,2013-05-03 05:01:00,
2013-05-03 00:06:00,61.7,51.0,29.18,ESE,109,0.0,0.0,68,0.00,,---,0.00,VWS V14.00,2013-05-03 05:06:00,
2013-05-03 00:11:00,61.9,51.2,29.18,ESE,109,0.0,0.0,68,0.00,,---,0.00,VWS V14.00,2013-05-03 05:11:00,
2013-05-03 00:16:00,62.2,51.6,29.18,ESE,109,0.0,0.0,68,0.00,,---,0.00,VWS V14.00,2013-05-03 05:16:00,
2013-05-03 00:21:00,62.2,51.6,29.18,ESE,109,0.0,0.0,68,0.00,,---,0.00,VWS V14.00,2013-05-03 05:21:00,
2013-05-03 00:26:00,62.8,51.3,29.18,ESE,109,0.0,0.0,66,0.00,,---,0.00,VWS V14.00,2013-05-03 05:26:00,
2013-05-03 00:31:00,62.8,51.3,29.18,ESE,109,0.0,0.0,66,0.00,,---,0.00,VWS V14.00,2013-05-03 05:31:00,
2013-05-03 00:36:00,63.3,51.8,29.18,SE,124,0.0,0.0,66,0.00,,---,0.00,VWS V14.00,2013-05-03 05:36:00,
2013-05-03 00:41:00,63.5,52.0,29.15,SE,124,0.0,0.0,66,0.00,,---,0.00,VWS V14.00,2013-05-03 05:41:00,
2013-05-03 00:46:00,63.5,52.0,29.15,SE,124,0.0,0.0,66,0.00,,---,0.00,VWS V14.00,2013-05-03 05:46:00,
2013-05-03 00:51:00,63.7,52.1,29.15,SE,124,0.0,0.0,66,0.00,,---,0.00,VWS V14.00,2013-05-03 05:51:00,
2013-05-03 00:56:00,63.7,52.1,29.15,SE,124,0.0,0.0,66,0.00,,---,0.00,VWS V14.00,2013-05-03 05:56:00,
2013-05-03 01:01:00,63.5,52.0,29.15,ESE,120,0.0,0.0,66,0.00,,---,0.00,VWS V14.00,2013-05-03 06:01:00,
2013-05-03 01:06:00,63.5,52.0,29.15,ESE,120,0.0,0.0,66,0.00,,---,0.00,VWS V14.00,2013-05-03 06:06:00,
2013-05-03 01:11:00,63.5,52.0,29.15,ESE,120,0.0,0.0,66,0.00,,---,0.00,VWS V14.00,2013-05-03 06:11:00,
2013-05-03 01:16:00,63.9,52.3,29.15,ESE,120,0.0,0.0,66,0.00,,---,0.00,VWS V14.00,2013-05-03 06:16:00,
2013-05-03 01:21:00,63.9,52.3,29.15,ESE,120,0.0,0.0,66,0.00,,---,0.00,VWS V14.00,2013-05-03 06:21:00,
2013-05-03 01:26:00,63.9,52.3,29.15,ESE,120,0.0,0.0,66,0.00,,---,0.00,VWS V14.00,2013-05-03 06:26:00,
2013-05-03 01:31:00,63.9,52.3,29.15,ESE,120,0.0,0.0,66,0.00,,---,0.00,VWS V14.00,2013-05-03 06:31:00,
2013-05-03 01:36:00,63.9,52.3,29.15,ESE,120,0.0,0.0,66,0.00,,---,0.00,VWS V14.00,2013-05-03 06:36:00,
2013-05-03 01:41:00,63.9,52.3,29.15,ESE,120,0.0,0.0,66,0.00,,---,0.00,VWS V14.00,2013-05-03 06:41:00,
2013-05-03 01:46:00,63.9,52.3,29.15,ESE,120,0.0,0.0,66,0.00,,---,0.00,VWS V14.00,2013-05-03 06:46:00,
2013-05-03 01:51:00,64.0,52.5,29.15,ESE,120,0.0,0.0,66,0.00,,---,0.00,VWS V14.00,2013-05-03 06:51:00,
2013-05-03 01:56:00,64.0,52.5,29.15,ESE,120,0.0,0.0,66,0.00,,---,0.00,VWS V14.00,2013-05-03 06:56:00,
2013-05-03 02:01:00,64.0,52.5,29.15,ESE,120,0.0,0.0,66,0.00,,---,0.00,VWS V14.00,2013-05-03 07:01:00,
2013-05-03 02:06:00,63.9,52.3,29.15,ESE,120,0.0,0.0,66,0.00,,---,0.00,VWS V14.00,2013-05-03 07:06:00,
2013-05-03 02:11:00,63.9,52.3,29.15,ESE,120,0.0,0.0,66,0.00,,---,0.00,VWS V14.00,2013-05-03 07:11:00,
2013-05-03 02:16:00,63.9,52.3,29.15,ESE,120,0.0,0.0,66,0.00,,---,0.00,VWS V14.00,2013-05-03 07:16:00,
2013-05-03 02:21:00,63.7,52.1,29.15,ESE,120,0.0,0.0,66,0.00,,---,0.00,VWS V14.00,2013-05-03 07:21:00,
2013-05-03 02:26:00,63.7,52.1,29.15,ESE,120,0.0,0.0,66,0.00,,---,0.00,VWS V14.00,2013-05-03 07:26:00,
2013-05-03 02:31:00,63.7,52.1,29.15,ESE,120,0.0,0.0,66,0.00,,---,0.00,VWS V14.00,2013-05-03 07:31:00,
2013-05-03 02:36:00,63.5,52.0,29.15,ESE,120,0.0,0.0,66,0.00,,---,0.00,VWS V14.00,2013-05-03 07:36:00,
2013-05-03 02:41:00,63.5,52.0,29.15,ESE,120,0.0,0.0,66,0.00,,---,0.00,VWS V14.00,2013-05-03 07:41:00,
2013-05-03 02:46:00,63.1,51.6,29.15,ESE,120,0.0,0.0,66,0.00,,---,0.00,VWS V14.00,2013-05-03 07:46:00,
2013-05-03 02:51:00,63.0,51.4,29.15,ESE,120,0.0,0.0,66,0.00,,---,0.00,VWS V14.00,2013-05-03 07:51:00,
2013-05-03 02:56:00,63.0,51.4,29.15,ESE,120,0.0,0.0,66,0.00,,---,0.00,VWS V14.00,2013-05-03 07:56:00,
2013-05-03 03:01:00,62.6,51.1,29.15,ESE,120,0.0,0.0,66,0.00,,---,0.00,VWS V14.00,2013-05-03 08:01:00,
2013-05-03 03:06:00,62.6,51.1,29.15,ESE,120,0.0,0.0,66,0.00,,---,0.00,VWS V14.00,2013-05-03 08:06:00,
2013-05-03 03:11:00,62.4,51.7,29.15,ESE,120,0.0,0.0,68,0.00,,---,0.00,VWS V14.00,2013-05-03 08:11:00,
2013-05-03 03:16:00,62.4,51.7,29.15,ESE,120,0.0,0.0,68,0.00,,---,0.00,VWS V14.00,2013-05-03 08:16:00,
2013-05-03 03:21:00,62.2,51.6,29.15,ESE,120,0.0,0.0,68,0.00,,---,0.00,VWS V14.00,2013-05-03 08:21:00,
2013-05-03 03:26:00,62.1,51.4,29.15,ESE,120,0.0,0.0,68,0.00,,---,0.00,VWS V14.00,2013-05-03 08:26:00,
2013-05-03 03:31:00,62.1,51.4,29.15,ESE,120,0.0,0.0,68,0.00,,---,0.00,VWS V14.00,2013-05-03 08:31:00,
2013-05-03 03:36:00,61.9,51.2,29.15,ESE,120,0.0,0.0,68,0.00,,---,0.00,VWS V14.00,2013-05-03 08:36:00,
2013-05-03 03:41:00,61.9,51.2,29.15,ESE,120,0.0,0.0,68,0.00,,---,0.00,VWS V14.00,2013-05-03 08:41:00,
2013-05-03 03:46:00,61.9,51.2,29.15,ESE,120,0.0,0.0,68,0.00,,---,0.00,VWS V14.00,2013-05-03 08:46:00,
2013-05-03 03:51:00,61.9,51.2,29.15,ESE,120,0.0,0.0,68,0.00,,---,0.00,VWS V14.00,2013-05-03 08:51:00,
2013-05-03 03:56:00,61.7,51.0,29.15,ESE,120,0.0,0.0,68,0.00,,---,0.00,VWS V14.00,2013-05-03 08:56:00,
2013-05-03 04:01:00,61.7,51.0,29.15,ESE,120,0.0,0.0,68,0.00,,---,0.00,VWS V14.00,2013-05-03 09:01:00,
2013-05-03 04:06:00,61.7,51.0,29.15,ESE,120,0.0,0.0,68,0.00,,---,0.00,VWS V14.00,2013-05-03 09:06:00,
2013-05-03 04:11:00,61.5,50.9,29.15,ESE,120,0.0,0.0,68,0.00,,---,0.00,VWS V14.00,2013-05-03 09:11:00,
2013-05-03 04:16:00,61.5,50.9,29.15,ESE,120,0.0,0.0,68,0.00,,---,0.00,VWS V14.00,2013-05-03 09:16:00,
2013-05-03 04:21:00,61.5,50.9,29.15,ESE,120,0.0,0.0,68,0.00,,---,0.00,VWS V14.00,2013-05-03 09:21:00,
2013-05-03 04:26:00,61.3,50.7,29.15,ESE,120,0.0,0.0,68,0.00,,---,0.00,VWS V14.00,2013-05-03 09:26:00,
2013-05-03 04:31:00,61.3,50.7,29.15,ESE,120,0.0,0.0,68,0.00,,---,0.00,VWS V14.00,2013-05-03 09:31:00,
2013-05-03 04:36:00,61.3,50.7,29.15,ESE,120,0.0,0.0,68,0.00,,---,0.00,VWS V14.00,2013-05-03 09:36:00,
2013-05-03 04:41:00,61.3,50.7,29.15,ESE,120,0.0,0.0,68,0.00,,---,0.00,VWS V14.00,2013-05-03 09:41:00,
2013-05-03 04:50:00,61.3,50.7,29.15,South,190,3.1,3.1,68,0.00,,---,0.00,VWS V14.00,2013-05-03 09:50:00,
2013-05-03 04:55:00,61.3,50.7,29.15,ESE,105,2.7,4.9,68,0.00,,---,0.00,VWS V14.00,2013-05-03 09:55:00,
2013-05-03 05:00:00,61.3,50.7,29.15,SSE,164,3.1,5.4,68,0.00,,---,0.00,VWS V14.00,2013-05-03 10:00:00,
2013-05-03 05:05:00,61.3,50.7,29.15,ESE,120,3.1,5.8,68,0.00,,---,0.00,VWS V14.00,2013-05-03 10:05:00,
2013-05-03 05:10:00,61.2,50.5,29.15,SE,133,4.0,6.3,68,0.00,,---,0.00,VWS V14.00,2013-05-03 10:10:00,
2013-05-03 05:15:00,61.2,50.5,29.15,SE,126,2.7,3.1,68,0.00,,---,0.00,VWS V14.00,2013-05-03 10:15:00,
2013-05-03 05:20:00,61.2,50.5,29.15,SE,126,2.7,2.7,68,0.00,,---,0.00,VWS V14.00,2013-05-03 10:20:00,
2013-05-03 05:25:00,61.2,50.5,29.15,SE,126,2.7,2.7,68,0.00,,---,0.00,VWS V14.00,2013-05-03 10:25:00,
2013-05-03 05:30:00,61.0,50.4,29.15,SE,126,2.7,2.7,68,0.00,,---,0.00,VWS V14.00,2013-05-03 10:30:00,
2013-05-03 05:35:00,61.0,50.4,29.15,SE,126,2.7,2.7,68,0.00,,---,0.00,VWS V14.00,2013-05-03 10:35:00,
2013-05-03 05:40:00,61.0,50.4,29.15,South,178,4.0,4.0,68,0.00,,---,0.00,VWS V14.00,2013-05-03 10:40:00,
2013-05-03 05:45:00,60.6,50.0,29.15,South,178,4.0,4.0,68,0.00,,---,0.00,VWS V14.00,2013-05-03 10:45:00,
2013-05-03 05:50:00,60.6,50.0,29.15,South,178,4.0,4.0,68,0.00,,---,0.00,VWS V14.00,2013-05-03 10:50:00,
2013-05-03 05:55:00,60.6,50.0,29.15,South,178,4.0,4.0,68,0.00,,---,0.00,VWS V14.00,2013-05-03 10:55:00,
2013-05-03 06:00:00,60.6,50.0,29.15,South,178,4.0,4.0,68,0.00,,---,0.00,VWS V14.00,2013-05-03 11:00:00,
2013-05-03 06:05:00,60.6,50.0,29.15,South,178,4.0,4.0,68,0.00,,---,0.00,VWS V14.00,2013-05-03 11:05:00,
2013-05-03 06:10:00,60.4,49.8,29.15,South,178,4.0,4.0,68,0.00,,---,0.00,VWS V14.00,2013-05-03 11:10:00,
2013-05-03 06:15:00,60.6,50.0,29.15,South,178,4.0,4.0,68,0.00,,---,0.00,VWS V14.00,2013-05-03 11:15:00,
2013-05-03 06:20:00,60.8,50.2,29.15,South,178,4.0,4.0,68,0.00,,---,0.00,VWS V14.00,2013-05-03 11:20:00,
2013-05-03 06:25:00,60.8,50.2,29.15,South,178,4.0,4.0,68,0.00,,---,0.00,VWS V14.00,2013-05-03 11:25:00,
2013-05-03 06:30:00,61.0,50.4,29.15,South,178,4.0,4.0,68,0.00,,---,0.00,VWS V14.00,2013-05-03 11:30:00,
2013-05-03 06:35:00,61.0,50.4,29.15,South,178,4.0,4.0,68,0.00,,---,0.00,VWS V14.00,2013-05-03 11:35:00,
2013-05-03 06:40:00,61.2,50.5,29.15,South,178,4.0,4.0,68,0.00,,---,0.00,VWS V14.00,2013-05-03 11:40:00,
2013-05-03 06:45:00,61.3,50.7,29.15,South,178,4.0,4.0,68,0.00,,---,0.00,VWS V14.00,2013-05-03 11:45:00,
2013-05-03 06:50:00,61.5,50.9,29.15,South,178,4.0,4.0,68,0.00,,---,0.00,VWS V14.00,2013-05-03 11:50:00,
2013-05-03 06:55:00,61.9,51.2,29.15,South,178,4.0,4.0,68,0.00,,---,0.00,VWS V14.00,2013-05-03 11:55:00,
2013-05-03 07:00:00,61.9,51.2,29.15,South,178,4.0,4.0,68,0.00,,---,0.00,VWS V14.00,2013-05-03 12:00:00,
2013-05-03 07:05:00,62.2,51.6,29.15,South,178,4.0,4.0,68,0.00,,---,0.00,VWS V14.00,2013-05-03 12:05:00,
2013-05-03 07:10:00,62.6,51.1,29.15,South,178,4.0,4.0,66,0.00,,---,0.00,VWS V14.00,2013-05-03 12:10:00,
2013-05-03 07:15:00,62.6,51.1,29.15,South,178,4.0,4.0,66,0.00,,---,0.00,VWS V14.00,2013-05-03 12:15:00,
2013-05-03 07:20:00,63.3,51.8,29.15,South,178,4.0,4.0,66,0.00,,---,0.00,VWS V14.00,2013-05-03 12:20:00,
2013-05-03 07:25:00,64.0,52.5,29.15,South,178,4.0,4.0,66,0.00,,---,0.00,VWS V14.00,2013-05-03 12:25:00,
2013-05-03 07:30:00,64.2,52.6,29.15,SW,219,4.0,4.0,66,0.00,,---,0.00,VWS V14.00,2013-05-03 12:30:00,
2013-05-03 07:35:00,64.2,52.6,29.15,SW,219,4.0,4.0,66,0.00,,---,0.00,VWS V14.00,2013-05-03 12:35:00,
2013-05-03 07:40:00,65.5,53.8,29.15,SW,219,4.0,4.0,66,0.00,,---,0.00,VWS V14.00,2013-05-03 12:40:00,
2013-05-03 07:45:00,65.1,53.5,29.15,SW,219,4.0,4.0,66,0.00,,---,0.00,VWS V14.00,2013-05-03 12:45:00,
2013-05-03 07:50:00,66.0,54.3,29.15,SW,219,4.0,4.0,66,0.00,,---,0.00,VWS V14.00,2013-05-03 12:50:00,
2013-05-03 07:55:00,67.1,54.5,29.15,SW,219,4.0,4.0,64,0.00,,---,0.00,VWS V14.00,2013-05-03 12:55:00,
2013-05-03 08:00:00,67.1,54.5,29.18,SW,219,4.0,4.0,64,0.00,,---,0.00,VWS V14.00,2013-05-03 13:00:00,
2013-05-03 08:05:00,66.6,54.0,29.18,SW,219,4.0,4.0,64,0.00,,---,0.00,VWS V14.00,2013-05-03 13:05:00,
2013-05-03 08:10:00,66.6,54.0,29.18,SW,219,4.0,4.0,64,0.00,,---,0.00,VWS V14.00,2013-05-03 13:10:00,
2013-05-03 08:15:00,66.0,54.3,29.18,SW,219,4.0,4.0,66,0.00,,---,0.00,VWS V14.00,2013-05-03 13:15:00,
2013-05-03 08:20:00,66.6,54.0,29.18,SSE,149,3.1,3.1,64,0.00,,---,0.00,VWS V14.00,2013-05-03 13:20:00,
2013-05-03 08:25:00,67.1,54.5,29.18,SSE,149,3.1,3.1,64,0.00,,---,0.00,VWS V14.00,2013-05-03 13:25:00,
2013-05-03 08:30:00,67.8,55.2,29.18,SSE,149,3.1,3.1,64,0.00,,---,0.00,VWS V14.00,2013-05-03 13:30:00,
2013-05-03 08:35:00,67.8,55.2,29.18,SSE,149,3.1,3.1,64,0.00,,---,0.00,VWS V14.00,2013-05-03 13:35:00,
2013-05-03 08:40:00,68.4,55.7,29.18,SSE,149,3.1,3.1,64,0.00,,---,0.00,VWS V14.00,2013-05-03 13:40:00,
2013-05-03 08:45:00,68.7,56.1,29.18,SSE,149,3.1,3.1,64,0.00,,---,0.00,VWS V14.00,2013-05-03 13:45:00,
2013-05-03 08:50:00,68.7,56.1,29.18,SSE,149,3.1,3.1,64,0.00,,---,0.00,VWS V14.00,2013-05-03 13:50:00,
2013-05-03 08:55:00,68.5,55.9,29.15,SSE,149,3.1,3.1,64,0.00,,---,0.00,VWS V14.00,2013-05-03 13:55:00,
2013-05-03 09:00:00,68.7,56.1,29.15,SSE,149,3.1,3.1,64,0.00,,---,0.00,VWS V14.00,2013-05-03 14:00:00,
2013-05-03 09:05:00,69.1,56.4,29.15,SSE,149,3.1,3.1,64,0.00,,---,0.00,VWS V14.00,2013-05-03 14:05:00,
2013-05-03 09:10:00,69.1,56.4,29.15,SSE,149,3.1,3.1,64,0.00,,---,0.00,VWS V14.00,2013-05-03 14:10:00,
2013-05-03 09:15:00,70.3,57.6,29.15,SSE,149,3.1,3.1,64,0.00,,---,0.00,VWS V14.00,2013-05-03 14:15:00,
2013-05-03 09:20:00,70.9,58.1,29.15,SSE,149,3.1,3.1,64,0.00,,---,0.00,VWS V14.00,2013-05-03 14:20:00,
2013-05-03 09:25:00,71.2,58.5,29.15,SSE,149,3.1,3.1,64,0.00,,---,0.00,VWS V14.00,2013-05-03 14:25:00,
2013-05-03 09:30:00,72.1,58.4,29.15,SSE,149,3.1,3.1,62,0.00,,---,0.00,VWS V14.00,2013-05-03 14:30:00,
2013-05-03 09:35:00,72.1,58.4,29.15,SSE,149,3.1,3.1,62,0.00,,---,0.00,VWS V14.00,2013-05-03 14:35:00,
2013-05-03 09:40:00,72.7,58.9,29.15,SSE,149,3.1,3.1,62,0.00,,---,0.00,VWS V14.00,2013-05-03 14:40:00,
2013-05-03 09:45:00,72.7,58.9,29.15,SSE,149,3.1,3.1,62,0.00,,---,0.00,VWS V14.00,2013-05-03 14:45:00,
2013-05-03 09:50:00,73.8,59.9,29.15,SSE,149,3.1,3.1,62,0.00,,---,0.00,VWS V14.00,2013-05-03 14:50:00,
2013-05-03 09:55:00,73.9,60.1,29.15,SSE,149,3.1,3.1,62,0.00,,---,0.00,VWS V14.00,2013-05-03 14:55:00,
2013-05-03 10:00:00,73.9,60.1,29.15,SSE,149,3.1,3.1,62,0.00,,---,0.00,VWS V14.00,2013-05-03 15:00:00,
2013-05-03 10:05:00,73.9,60.1,29.15,SSE,149,3.1,3.1,62,0.00,,---,0.00,VWS V14.00,2013-05-03 15:05:00,
2013-05-03 10:10:00,73.6,59.8,29.15,SSE,149,3.1,3.1,62,0.00,,---,0.00,VWS V14.00,2013-05-03 15:10:00,
2013-05-03 10:15:00,73.6,59.8,29.15,SSE,149,3.1,3.1,62,0.00,,---,0.00,VWS V14.00,2013-05-03 15:15:00,
2013-05-03 10:20:00,73.6,59.8,29.15,SSE,149,3.1,3.1,62,0.00,,---,0.00,VWS V14.00,2013-05-03 15:20:00,
2013-05-03 10:25:00,73.6,59.8,29.15,SSE,149,3.1,3.1,62,0.00,,---,0.00,VWS V14.00,2013-05-03 15:25:00,
2013-05-03 10:30:00,73.6,59.8,29.15,SSE,149,3.1,3.1,62,0.00,,---,0.00,VWS V14.00,2013-05-03 15:30:00,
2013-05-03 10:35:00,73.6,59.8,29.15,SSE,149,3.1,3.1,62,0.00,,---,0.00,VWS V14.00,2013-05-03 15:35:00,
2013-05-03 10:40:00,73.6,59.8,29.15,SSE,149,3.1,3.1,62,0.00,,---,0.00,VWS V14.00,2013-05-03 15:40:00,
2013-05-03 10:45:00,73.6,59.8,29.15,SSE,149,3.1,3.1,62,0.00,,---,0.00,VWS V14.00,2013-05-03 15:45:00,
2013-05-03 10:50:00,73.6,59.8,29.15,SSE,149,3.1,3.1,62,0.00,,---,0.00,VWS V14.00,2013-05-03 15:50:00,
2013-05-03 10:55:00,73.6,59.8,29.15,SSE,149,3.1,3.1,62,0.00,,---,0.00,VWS V14.00,2013-05-03 15:55:00,
2013-05-03 11:00:00,73.6,59.8,29.15,SSE,149,3.1,3.1,62,0.00,,---,0.00,VWS V14.00,2013-05-03 16:00:00,
2013-05-03 11:05:00,73.6,59.8,29.15,SSE,149,3.1,3.1,62,0.00,,---,0.00,VWS V14.00,2013-05-03 16:05:00,
2013-05-03 11:10:00,73.6,59.8,29.12,SSE,149,3.1,3.1,62,0.00,,---,0.00,VWS V14.00,2013-05-03 16:10:00,
2013-05-03 11:15:00,73.6,59.8,29.12,SSE,149,3.1,3.1,62,0.00,,---,0.00,VWS V14.00,2013-05-03 16:15:00,
2013-05-03 11:20:00,73.6,59.8,29.12,SSE,149,3.1,3.1,62,0.00,,---,0.00,VWS V14.00,2013-05-03 16:20:00,
2013-05-03 11:25:00,73.6,59.8,29.12,SSE,149,3.1,3.1,62,0.00,,---,0.00,VWS V14.00,2013-05-03 16:25:00,
2013-05-03 11:30:00,73.6,59.8,29.12,SSE,149,3.1,3.1,62,0.00,,---,0.00,VWS V14.00,2013-05-03 16:30:00,
2013-05-03 11:35:00,73.6,59.8,29.12,SSE,149,3.1,3.1,62,0.00,,---,0.00,VWS V14.00,2013-05-03 16:35:00,
2013-05-03 11:40:00,73.6,59.8,29.12,SSE,149,3.1,3.1,62,0.00,,---,0.00,VWS V14.00,2013-05-03 16:40:00,
2013-05-03 11:45:00,78.3,63.2,29.12,SSE,149,3.1,3.1,60,0.00,,---,0.00,VWS V14.00,2013-05-03 16:45:00,
2013-05-03 11:50:00,78.3,63.2,29.12,SSE,149,3.1,3.1,60,0.00,,---,0.00,VWS V14.00,2013-05-03 16:50:00,
2013-05-03 11:55:00,78.3,63.2,29.12,SSE,149,3.1,3.1,60,0.00,,---,0.00,VWS V14.00,2013-05-03 16:55:00,
2013-05-03 12:00:00,78.3,63.2,29.12,SSE,149,3.1,3.1,60,0.00,,---,0.00,VWS V14.00,2013-05-03 17:00:00,
2013-05-03 12:05:00,78.3,63.2,29.12,SSE,149,3.1,3.1,60,0.00,,---,0.00,VWS V14.00,2013-05-03 17:05:00,
2013-05-03 12:10:00,78.3,63.2,29.12,SSE,149,3.1,3.1,60,0.00,,---,0.00,VWS V14.00,2013-05-03 17:10:00,
2013-05-03 12:15:00,78.3,63.2,29.12,SSE,149,3.1,3.1,60,0.00,,---,0.00,VWS V14.00,2013-05-03 17:15:00,
2013-05-03 12:20:00,78.3,63.2,29.12,SE,126,0.0,0.0,60,0.00,,---,0.00,VWS V14.00,2013-05-03 17:20:00,
2013-05-03 12:25:00,78.3,63.2,29.12,SE,126,0.0,0.0,60,0.00,,---,0.00,VWS V14.00,2013-05-03 17:25:00,
2013-05-03 12:30:00,78.3,63.2,29.12,SW,218,2.7,2.7,60,0.00,,---,0.00,VWS V14.00,2013-05-03 17:30:00,
2013-05-03 12:35:00,78.3,63.2,29.12,SW,218,2.7,2.7,60,0.00,,---,0.00,VWS V14.00,2013-05-03 17:35:00,
2013-05-03 12:40:00,78.3,63.2,29.12,SSW,194,3.6,3.6,60,0.00,,---,0.00,VWS V14.00,2013-05-03 17:40:00,
2013-05-03 12:45:00,78.3,63.2,29.09,SE,127,8.1,8.1,60,0.00,,---,0.00,VWS V14.00,2013-05-03 17:45:00,
2013-05-03 12:50:00,78.3,63.2,29.09,SE,127,8.1,8.1,60,0.00,,---,0.00,VWS V14.00,2013-05-03 17:50:00,
2013-05-03 12:55:00,78.3,63.2,29.09,SSW,192,0.0,0.0,60,0.00,,---,0.00,VWS V14.00,2013-05-03 17:55:00,
2013-05-03 13:00:00,78.3,63.2,29.09,ENE,68,4.9,4.9,60,0.00,,---,0.00,VWS V14.00,2013-05-03 18:00:00,
2013-05-03 13:05:00,78.3,63.2,29.09,SE,136,4.0,4.0,60,0.00,,---,0.00,VWS V14.00,2013-05-03 18:05:00,
2013-05-03 13:10:00,78.3,63.2,29.09,SE,136,4.0,4.0,60,0.00,,---,0.00,VWS V14.00,2013-05-03 18:10:00,
2013-05-03 13:15:00,78.3,63.2,29.09,ENE,57,8.1,8.1,60,0.00,,---,0.00,VWS V14.00,2013-05-03 18:15:00,
2013-05-03 13:20:00,78.3,63.2,29.09,ENE,57,8.1,8.1,60,0.00,,---,0.00,VWS V14.00,2013-05-03 18:20:00,
2013-05-03 13:25:00,78.3,63.2,29.09,ENE,57,8.1,8.1,60,0.00,,---,0.00,VWS V14.00,2013-05-03 18:25:00,
2013-05-03 13:30:00,78.3,63.2,29.09,SSE,150,3.1,3.1,60,0.00,,---,0.00,VWS V14.00,2013-05-03 18:30:00,
2013-05-03 13:35:00,78.3,63.2,29.09,SW,218,4.5,4.5,60,0.00,,---,0.00,VWS V14.00,2013-05-03 18:35:00,
2013-05-03 13:40:00,78.3,63.2,29.09,SW,218,4.5,4.5,60,0.00,,---,0.00,VWS V14.00,2013-05-03 18:40:00,
2013-05-03 13:45:00,78.3,63.2,29.09,South,177,5.4,5.4,60,0.00,,---,0.00,VWS V14.00,2013-05-03 18:45:00,
2013-05-03 13:50:00,78.3,63.2,29.09,WSW,239,5.4,5.4,60,0.00,,---,0.00,VWS V14.00,2013-05-03 18:50:00,
2013-05-03 13:55:00,78.3,63.2,29.09,ESE,106,3.1,3.1,60,0.00,,---,0.00,VWS V14.00,2013-05-03 18:55:00,
2013-05-03 14:00:00,78.3,63.2,29.09,ESE,106,3.1,3.1,60,0.00,,---,0.00,VWS V14.00,2013-05-03 19:00:00,
2013-05-03 14:05:00,78.3,63.2,29.09,NE,40,5.8,5.8,60,0.00,,---,0.00,VWS V14.00,2013-05-03 19:05:00,
2013-05-03 14:10:00,78.3,63.2,29.09,NE,40,5.8,5.8,60,0.00,,---,0.00,VWS V14.00,2013-05-03 19:10:00,
2013-05-03 14:15:00,78.3,63.2,29.06,NE,40,5.8,5.8,60,0.00,,---,0.00,VWS V14.00,2013-05-03 19:15:00,
2013-05-03 14:20:00,78.3,63.2,29.06,ESE,119,8.3,8.3,60,0.00,,---,0.00,VWS V14.00,2013-05-03 19:20:00,
2013-05-03 14:25:00,78.3,63.2,29.06,ESE,119,8.3,8.3,60,0.00,,---,0.00,VWS V14.00,2013-05-03 19:25:00,
2013-05-03 14:30:00,78.3,63.2,29.06,SSE,158,6.3,6.3,60,0.00,,---,0.00,VWS V14.00,2013-05-03 19:30:00,
2013-05-03 14:35:00,78.3,63.2,29.06,SSE,158,6.3,6.3,60,0.00,,---,0.00,VWS V14.00,2013-05-03 19:35:00,
2013-05-03 14:40:00,78.3,63.2,29.06,SSW,208,6.7,6.7,60,0.00,,---,0.00,VWS V14.00,2013-05-03 19:40:00,
2013-05-03 14:45:00,78.3,63.2,29.06,SSW,208,6.7,6.7,60,0.00,,---,0.00,VWS V14.00,2013-05-03 19:45:00,
2013-05-03 14:50:00,78.3,63.2,29.06,ESE,117,3.6,3.6,60,0.00,,---,0.00,VWS V14.00,2013-05-03 19:50:00,
2013-05-03 14:55:00,78.3,63.2,29.06,ESE,117,3.6,3.6,60,0.00,,---,0.00,VWS V14.00,2013-05-03 19:55:00,
2013-05-03 15:00:00,78.3,63.2,29.06,WNW,296,3.6,3.6,60,0.00,,---,0.00,VWS V14.00,2013-05-03 20:00:00,
2013-05-03 15:05:00,78.3,63.2,29.06,WNW,296,3.6,3.6,60,0.00,,---,0.00,VWS V14.00,2013-05-03 20:05:00,
2013-05-03 15:10:00,78.3,63.2,29.06,WNW,296,3.6,3.6,60,0.00,,---,0.00,VWS V14.00,2013-05-03 20:10:00,
2013-05-03 15:15:00,78.3,63.2,29.06,East,79,4.0,4.0,60,0.00,,---,0.00,VWS V14.00,2013-05-03 20:15:00,
2013-05-03 15:20:00,78.3,63.2,29.06,East,79,4.0,4.0,60,0.00,,---,0.00,VWS V14.00,2013-05-03 20:20:00,
2013-05-03 15:25:00,78.3,63.2,29.06,East,88,3.6,3.6,60,0.00,,---,0.00,VWS V14.00,2013-05-03 20:25:00,
2013-05-03 15:30:00,78.3,63.2,29.06,East,88,3.6,3.6,60,0.00,,---,0.00,VWS V14.00,2013-05-03 20:30:00,
2013-05-03 15:35:00,78.3,63.2,29.06,SW,220,2.2,2.2,60,0.00,,---,0.00,VWS V14.00,2013-05-03 20:35:00,
2013-05-03 15:40:00,78.3,63.2,29.06,SW,220,2.2,2.2,60,0.00,,---,0.00,VWS V14.00,2013-05-03 20:40:00,
2013-05-03 15:45:00,76.6,61.7,29.06,SSW,210,3.1,3.1,60,0.00,,---,0.00,VWS V14.00,2013-05-03 20:45:00,
2013-05-03 15:50:00,76.6,61.7,29.06,SSW,210,3.1,3.1,60,0.00,,---,0.00,VWS V14.00,2013-05-03 20:50:00,
2013-05-03 15:55:00,76.6,61.7,29.06,ESE,114,4.9,4.9,60,0.00,,---,0.00,VWS V14.00,2013-05-03 20:55:00,
2013-05-03 16:00:00,76.6,61.7,29.06,ESE,114,4.9,4.9,60,0.00,,---,0.00,VWS V14.00,2013-05-03 21:00:00,
2013-05-03 16:05:00,76.6,61.7,29.06,ESE,114,4.9,4.9,60,0.00,,---,0.00,VWS V14.00,2013-05-03 21:05:00,
2013-05-03 16:10:00,76.6,61.7,29.06,West,264,4.9,4.9,60,0.00,,---,0.00,VWS V14.00,2013-05-03 21:10:00,
2013-05-03 16:15:00,75.9,61.0,29.06,West,264,4.9,4.9,60,0.00,,---,0.00,VWS V14.00,2013-05-03 21:15:00,
2013-05-03 16:20:00,75.9,61.0,29.06,NE,48,4.0,4.0,60,0.00,,---,0.00,VWS V14.00,2013-05-03 21:20:00,
2013-05-03 16:25:00,75.9,61.0,29.06,NE,48,4.0,4.0,60,0.00,,---,0.00,VWS V14.00,2013-05-03 21:25:00,
2013-05-03 16:30:00,75.9,61.0,29.06,East,85,3.1,3.1,60,0.00,,---,0.00,VWS V14.00,2013-05-03 21:30:00,
2013-05-03 16:35:00,75.9,61.0,29.06,East,85,3.1,3.1,60,0.00,,---,0.00,VWS V14.00,2013-05-03 21:35:00,
2013-05-03 16:40:00,75.9,61.0,29.03,ESE,109,3.6,3.6,60,0.00,,---,0.00,VWS V14.00,2013-05-03 21:40:00,
2013-05-03 16:45:00,76.5,61.6,29.03,ESE,109,3.6,3.6,60,0.00,,---,0.00,VWS V14.00,2013-05-03 21:45:00,
2013-05-03 16:50:00,76.5,61.6,29.03,ESE,122,4.0,4.0,60,0.00,,---,0.00,VWS V14.00,2013-05-03 21:50:00,
2013-05-03 16:55:00,76.5,61.6,29.03,ESE,122,4.0,4.0,60,0.00,,---,0.00,VWS V14.00,2013-05-03 21:55:00,
2013-05-03 17:00:00,76.5,61.6,29.03,ESE,122,4.0,4.0,60,0.00,,---,0.00,VWS V14.00,2013-05-03 22:00:00,
2013-05-03 17:05:00,76.5,61.6,29.03,South,186,3.1,3.1,60,0.00,,---,0.00,VWS V14.00,2013-05-03 22:05:00,
2013-05-03 17:10:00,76.5,61.6,29.06,South,186,3.1,3.1,60,0.00,,---,0.00,VWS V14.00,2013-05-03 22:10:00,
2013-05-03 17:15:00,77.0,62.1,29.06,SE,142,4.0,4.0,60,0.00,,---,0.00,VWS V14.00,2013-05-03 22:15:00,
2013-05-03 17:20:00,77.0,62.1,29.06,SE,142,4.0,4.0,60,0.00,,---,0.00,VWS V14.00,2013-05-03 22:20:00,
2013-05-03 17:25:00,77.0,62.1,29.06,ESE,117,2.7,2.7,60,0.00,,---,0.00,VWS V14.00,2013-05-03 22:25:00,
2013-05-03 17:30:00,77.0,62.1,29.06,ESE,117,2.7,2.7,60,0.00,,---,0.00,VWS V14.00,2013-05-03 22:30:00,
2013-05-03 17:35:00,77.0,62.1,29.06,SSE,152,0.0,0.0,60,0.00,,---,0.00,VWS V14.00,2013-05-03 22:35:00,
2013-05-03 17:40:00,77.0,62.1,29.03,SSE,152,0.0,0.0,60,0.00,,---,0.00,VWS V14.00,2013-05-03 22:40:00,
2013-05-03 17:45:00,75.4,60.5,29.03,SE,124,4.0,4.0,60,0.00,,---,0.00,VWS V14.00,2013-05-03 22:45:00,
2013-05-03 17:50:00,75.4,60.5,29.03,SE,124,4.0,4.0,60,0.00,,---,0.00,VWS V14.00,2013-05-03 22:50:00,
2013-05-03 17:55:00,75.4,60.5,29.03,East,80,8.3,8.3,60,0.00,,---,0.00,VWS V14.00,2013-05-03 22:55:00,
2013-05-03 18:00:00,75.4,60.5,29.03,East,80,8.3,8.3,60,0.00,,---,0.00,VWS V14.00,2013-05-03 23:00:00,
2013-05-03 18:05:00,75.4,60.5,29.03,East,80,8.3,8.3,60,0.00,,---,0.00,VWS V14.00,2013-05-03 23:05:00,
2013-05-03 18:10:00,73.8,59.9,29.03,SW,222,3.6,3.6,62,0.00,,---,0.00,VWS V14.00,2013-05-03 23:10:00,
2013-05-03 18:15:00,73.8,59.9,29.03,SW,222,3.6,3.6,62,0.00,,---,0.00,VWS V14.00,2013-05-03 23:15:00,
2013-05-03 18:20:00,73.8,59.9,29.03,NE,45,3.6,3.6,62,0.00,,---,0.00,VWS V14.00,2013-05-03 23:20:00,
2013-05-03 18:25:00,73.8,59.9,29.03,NE,45,3.6,3.6,62,0.00,,---,0.00,VWS V14.00,2013-05-03 23:25:00,
2013-05-03 18:30:00,73.8,59.9,29.03,South,169,2.7,2.7,62,0.00,,---,0.00,VWS V14.00,2013-05-03 23:30:00,
2013-05-03 18:35:00,73.8,59.9,29.03,South,169,2.7,2.7,62,0.00,,---,0.00,VWS V14.00,2013-05-03 23:35:00,
2013-05-03 18:40:00,73.8,59.9,29.06,South,169,2.7,2.7,62,0.00,,---,0.00,VWS V14.00,2013-05-03 23:40:00,
2013-05-03 18:45:00,73.8,59.9,29.06,South,169,2.7,2.7,62,0.00,,---,0.00,VWS V14.00,2013-05-03 23:45:00,
2013-05-03 18:50:00,73.8,59.9,29.06,SSW,210,2.7,2.7,62,0.00,,---,0.00,VWS V14.00,2013-05-03 23:50:00,
2013-05-03 18:55:00,70.3,57.6,29.06,ESE,113,2.7,2.7,64,0.00,,---,0.00,VWS V14.00,2013-05-03 23:55:00,
2013-05-03 19:00:00,70.0,57.3,29.06,ESE,123,4.0,4.0,64,0.00,,---,0.00,VWS V14.00,2013-05-04 00:00:00,
2013-05-03 19:05:00,69.8,57.1,29.06,East,82,4.0,4.0,64,0.00,,---,0.00,VWS V14.00,2013-05-04 00:05:00,
2013-05-03 19:10:00,69.6,56.9,29.06,ESE,110,6.3,6.3,64,0.00,,---,0.00,VWS V14.00,2013-05-04 00:10:00,
2013-05-03 19:15:00,69.4,56.8,29.06,ESE,110,4.0,4.0,64,0.00,,---,0.00,VWS V14.00,2013-05-04 00:15:00,
2013-05-03 19:20:00,69.1,56.4,29.06,NE,50,2.7,3.6,64,0.00,,---,0.00,VWS V14.00,2013-05-04 00:20:00,
2013-05-03 19:25:00,68.9,56.2,29.06,East,101,3.6,4.9,64,0.00,,---,0.00,VWS V14.00,2013-05-04 00:25:00,
2013-05-03 19:30:00,68.7,56.1,29.06,SE,128,3.1,4.0,64,0.00,,---,0.00,VWS V14.00,2013-05-04 00:30:00,
2013-05-03 19:35:00,68.5,55.9,29.06,South,181,2.7,3.6,64,0.00,,---,0.00,VWS V14.00,2013-05-04 00:35:00,
2013-05-03 19:40:00,68.4,55.7,29.06,SW,233,0.0,0.0,64,0.00,,---,0.00,VWS V14.00,2013-05-04 00:40:00,
2013-05-03 19:45:00,68.0,55.4,29.06,ESE,103,0.0,2.2,64,0.00,,---,0.00,VWS V14.00,2013-05-04 00:45:00,
2013-05-03 19:50:00,67.6,55.0,29.06,ESE,117,0.0,0.0,64,0.00,,---,0.00,VWS V14.00,2013-05-04 00:50:00,
2013-05-03 19:55:00,67.6,55.0,29.06,South,178,8.1,8.1,64,0.00,,---,0.00,VWS V14.00,2013-05-04 00:55:00,
2013-05-03 20:00:00,67.6,55.0,29.06,SW,217,0.0,4.0,64,0.00,,---,0.00,VWS V14.00,2013-05-04 01:00:00,
2013-05-03 20:05:00,67.5,54.9,29.06,East,94,4.0,4.0,64,0.00,,---,0.00,VWS V14.00,2013-05-04 01:05:00,
2013-05-03 20:10:00,67.3,54.7,29.06,ESE,118,5.4,5.4,64,0.00,,---,0.00,VWS V14.00,2013-05-04 01:10:00,
2013-05-03 20:15:00,67.3,54.7,29.06,East,88,4.9,4.9,64,0.00,,---,0.00,VWS V14.00,2013-05-04 01:15:00,
2013-05-03 20:20:00,66.9,54.4,29.06,NE,53,0.0,0.0,64,0.00,,---,0.00,VWS V14.00,2013-05-04 01:20:00,
2013-05-03 20:25:00,66.7,54.2,29.06,SE,134,4.0,5.8,64,0.00,,---,0.00,VWS V14.00,2013-05-04 01:25:00,
2013-05-03 20:30:00,66.7,54.2,29.06,East,97,5.4,5.8,64,0.00,,---,0.00,VWS V14.00,2013-05-04 01:30:00,
2013-05-03 20:35:00,66.6,54.0,29.06,East,88,4.9,4.9,64,0.00,,---,0.00,VWS V14.00,2013-05-04 01:35:00,
2013-05-03 20:40:00,66.7,54.2,29.06,SE,130,2.7,2.7,64,0.00,,---,0.00,VWS V14.00,2013-05-04 01:40:00,
2013-05-03 20:45:00,66.6,54.0,29.06,ESE,103,2.7,4.0,64,0.00,,---,0.00,VWS V14.00,2013-05-04 01:45:00,
2013-05-03 20:50:00,66.6,54.0,29.06,ESE,103,2.7,5.8,64,0.00,,---,0.00,VWS V14.00,2013-05-04 01:50:00,
2013-05-03 20:55:00,66.4,53.8,29.06,South,171,3.1,5.4,64,0.00,,---,0.00,VWS V14.00,2013-05-04 01:55:00,
2013-05-03 21:00:00,66.4,53.8,29.06,SE,138,6.3,6.3,64,0.00,,---,0.00,VWS V14.00,2013-05-04 02:00:00,
2013-05-03 21:05:00,66.4,53.8,29.06,SSW,195,3.1,4.0,64,0.00,,---,0.00,VWS V14.00,2013-05-04 02:05:00,
2013-05-03 21:10:00,66.6,54.0,29.06,ESE,112,3.6,6.7,64,0.00,,---,0.00,VWS V14.00,2013-05-04 02:10:00,
2013-05-03 21:15:00,66.4,53.8,29.06,ESE,104,3.6,5.8,64,0.00,,---,0.00,VWS V14.00,2013-05-04 02:15:00,
2013-05-03 21:20:00,66.4,53.8,29.06,ESE,110,3.6,5.4,64,0.00,,---,0.00,VWS V14.00,2013-05-04 02:20:00,
2013-05-03 21:25:00,66.4,53.8,29.06,SE,129,3.6,5.8,64,0.00,,---,0.00,VWS V14.00,2013-05-04 02:25:00,
2013-05-03 21:30:00,66.2,53.7,29.06,East,85,3.6,7.6,64,0.00,,---,0.00,VWS V14.00,2013-05-04 02:30:00,
2013-05-03 21:35:00,66.2,53.7,29.06,ESE,108,3.6,5.4,64,0.00,,---,0.00,VWS V14.00,2013-05-04 02:35:00,
2013-05-03 21:40:00,66.2,53.7,29.06,East,84,8.3,8.3,64,0.00,,---,0.00,VWS V14.00,2013-05-04 02:40:00,
2013-05-03 21:45:00,66.2,53.7,29.06,ESE,112,3.6,4.9,64,0.00,,---,0.00,VWS V14.00,2013-05-04 02:45:00,
2013-05-03 21:50:00,66.2,53.7,29.06,East,95,4.9,5.4,64,0.00,,---,0.00,VWS V14.00,2013-05-04 02:50:00,
2013-05-03 21:55:00,66.4,53.8,29.06,South,177,2.7,4.9,64,0.00,,---,0.00,VWS V14.00,2013-05-04 02:55:00,
2013-05-03 22:00:00,66.2,53.7,29.06,NE,40,4.9,6.3,64,0.00,,---,0.00,VWS V14.00,2013-05-04 03:00:00,
2013-05-03 22:04:00,65.8,54.2,29.06,East,87,8.1,8.1,66,0.00,,---,0.00,VWS V14.00,2013-05-04 03:04:00,
2013-05-03 22:09:00,65.8,54.2,29.06,SSE,158,0.0,3.1,66,0.00,,---,0.00,VWS V14.00,2013-05-04 03:09:00,
2013-05-03 22:14:00,65.7,54.0,29.06,East,88,2.7,5.4,66,0.00,,---,0.00,VWS V14.00,2013-05-04 03:14:00,
2013-05-03 22:19:00,65.5,53.8,29.06,SE,126,4.9,4.9,66,0.00,,---,0.00,VWS V14.00,2013-05-04 03:19:00,
2013-05-03 22:24:00,65.7,54.0,29.06,NE,56,2.7,5.4,66,0.00,,---,0.00,VWS V14.00,2013-05-04 03:24:00,
2013-05-03 22:29:00,65.7,54.0,29.06,SSE,164,5.4,6.3,66,0.00,,---,0.00,VWS V14.00,2013-05-04 03:29:00,
2013-05-03 22:34:00,65.7,54.0,29.06,SSW,213,3.1,5.4,66,0.00,,---,0.00,VWS V14.00,2013-05-04 03:34:00,
2013-05-03 22:39:00,65.5,53.8,29.06,ESE,113,3.1,6.3,66,0.00,,---,0.00,VWS V14.00,2013-05-04 03:39:00,
2013-05-03 22:44:00,65.3,53.7,29.06,SSW,195,4.0,7.6,66,0.00,,---,0.00,VWS V14.00,2013-05-04 03:44:00,
2013-05-03 22:49:00,65.3,53.7,29.06,ESE,113,3.6,5.4,66,0.00,,---,0.00,VWS V14.00,2013-05-04 03:49:00,
2013-05-03 22:54:00,65.3,53.7,29.06,SSE,150,5.8,8.1,66,0.00,,---,0.00,VWS V14.00,2013-05-04 03:54:00,
2013-05-03 22:59:00,65.3,53.7,29.06,SSW,207,4.0,4.0,66,0.00,,---,0.00,VWS V14.00,2013-05-04 03:59:00,
2013-05-03 23:01:00,65.3,53.7,29.06,SE,131,3.1,5.8,66,0.00,,---,0.00,VWS V14.00,2013-05-04 04:01:00,
2013-05-03 23:06:00,65.3,53.7,29.06,SSW,212,3.1,5.8,66,0.00,,---,0.00,VWS V14.00,2013-05-04 04:06:00,
2013-05-03 23:11:00,65.1,53.5,29.06,SSE,160,4.9,5.8,66,0.00,,---,0.00,VWS V14.00,2013-05-04 04:11:00,
2013-05-03 23:16:00,65.1,53.5,29.06,SE,127,5.4,5.4,66,0.00,,---,0.00,VWS V14.00,2013-05-04 04:16:00,
2013-05-03 23:21:00,65.1,53.5,29.06,NE,38,4.0,4.9,66,0.00,,---,0.00,VWS V14.00,2013-05-04 04:21:00,
2013-05-03 23:26:00,65.1,53.5,29.06,ESE,111,6.3,7.6,66,0.00,,---,0.00,VWS V14.00,2013-05-04 04:26:00,
2013-05-03 23:31:00,64.8,53.2,29.06,SSW,192,4.9,7.6,66,0.00,,---,0.00,VWS V14.00,2013-05-04 04:31:00,
2013-05-03 23:36:00,64.8,53.2,29.06,East,93,3.1,4.0,66,0.00,,---,0.00,VWS V14.00,2013-05-04 04:36:00,
2013-05-03 23:41:00,64.6,53.0,29.06,SW,220,2.7,3.6,66,0.00,,---,0.00,VWS V14.00,2013-05-04 04:41:00,
2013-05-03 23:46:00,64.4,52.8,29.06,East,82,3.6,4.0,66,0.00,,---,0.00,VWS V14.00,2013-05-04 04:46:00,
2013-05-03 23:51:00,64.2,52.6,29.06,ESE,114,3.1,5.4,66,0.00,,---,0.00,VWS V14.00,2013-05-04 04:51:00,
2013-05-03 23:56:00,64.2,52.6,29.06,SE,125,5.4,5.4,66,0.00,,---,0.00,VWS V14.00,2013-05-04 04:56:00,